Terminal Aerodrome Forecast
Issued by NWS

Current Version | Previous Version | Text Only | Print | Product List | Glossary Off
Versions: 1 2 3 4 5 6 7 8 9 10 11 12 13 14 15 16 17 18 19 20 21 22 23

000
FTUS41 KRLX 010529
TAFCKB
TAF
KCKB 010529Z 0106/0206 22004KT 6SM BR BKN025
     FM010700 21004KT 3SM BR BKN020
     FM011300 23005KT P6SM BKN020
     FM011500 24008KT P6SM SCT020
     FM012200 27008KT P6SM SCT040=

USA.gov is the U.S. government's official web portal to all federal, state and local government web resources and services.